Airfield :
LOGIN :

Register | Disclaimer

   EN    FR    IT 

 










Legend :    VFR   Marginal VFR   IFR   Intensive IFR   Very Intensive IFR
Visi :
Ceiling :
>= 8 km
>= 3000ft
5 to 8 km
1000 to 3000 ft
1500m to 5 km
500 to 1000 ft
800 to 1500m
200 to 500 ft
< 800m
< 200 ft
Symbols :   Thunderstorms  Fog  Heavy snow  Heavy precipitations  Wind > 20 kt
SIGMETs :     Misc.  Thunderstorms  Icing  Turbulence  Mountain Waves  Volcanic Ashes







- Airport Elevation : 24 ft
- IATA code : FAO


LPFR - Faro

CURRENT METAR :
  • 181700Z 36008KT 330V030 9999 FEW020 SCT030 17/12 Q1008

EXPIRED METARs :
  • 181630Z 35010KT 9999 FEW020 BKN030 17/12 Q1007
  • 181600Z 02010KT 9999 FEW020 BKN030 18/11 Q1007
  • 181530Z 01009KT 340V040 9999 FEW020 BKN030 17/12 Q1007
  • 181500Z 05007G17KT 350V130 9999 FEW020 BKN030 19/11 Q1007
  • 181430Z 02007KT 350V070 9999 FEW020 BKN030 18/11 Q1007

TAF TAF LPFR
Valid from the 18 at 18:00 until the 19 at 18:00 UTC


181700Z 1818/1918 01008KT 9999 FEW020 BKN030
TEMPO 1818/1821 5000 SHRA SCT006 BKN015 FEW020CB
BECMG 1819/1821 VRB03KT SCT020
BECMG 1823/1902 05008KT
TEMPO 1903/1915 5000 SHRA SCT006 BKN018 FEW025CB
BECMG 1910/1912 11012KT
No reported NOTAMs for that airfield.
3 SIGMETs reported for the Lisboa FIR (LPPC) :
 
Embedded thunderstorms
LPPC SIGMET 5 VALID 181735/182135 LPPT
LPPC LISBON FIR EMBD TS OBS E OF LINE N3740 W00800 - N3900 W00755 - N3950 W00835 TOP FL320 MOV SW 25KT NC=
SIGMET 3  cancelation
LPPC SIGMET 4 VALID 181725/181805 LPPT
LPPC LISBON FIR CNL SIGMET 3 181405/181805=
SIGMET 3  CANCELED :
Embedded thunderstorms
LPPC SIGMET 3 VALID 181405/181805 LPPT
LPPC LISBON FIR EMBD TS FCST S OF N3645 AND E OF W01000 TOP FL300 MOV SE 20KT NC=



MET'MAP, your aeronautical weather chart ! - Copyright ORBIFLY December 2007 - Disclaimer

ORBIFLY MET'MAP TEAM :

Programming & Development : Alexandra Zaïnal
Concept & Development : Baudouin d'Aumeries
Co-Development & Prog : Marc-Olivier Méhu
Technical & hardware support : Manuel Goepfert

Contact : metmap@orbifly.com




SOURCES & CREDITS :

   NOAA